createdAt,value
2023-01-08T00:03:41.538Z,3.95
2023-01-08T00:06:29.206Z,3.66
2023-01-08T00:09:16.755Z,3.56
2023-01-08T00:12:04.332Z,3.63
2023-01-08T00:14:51.853Z,3.46
2023-01-08T00:17:39.434Z,3.33
2023-01-08T00:20:26.993Z,3.28
2023-01-08T00:23:14.650Z,3.33
2023-01-08T00:26:02.243Z,3.38
2023-01-08T00:28:49.813Z,3.14
2023-01-08T00:31:37.371Z,3.49
2023-01-08T00:34:24.908Z,3.05
2023-01-08T00:37:12.473Z,3.36
2023-01-08T00:40:00.051Z,3.14
2023-01-08T00:42:47.639Z,2.97
2023-01-08T00:45:35.266Z,3.35
2023-01-08T00:48:22.906Z,3.16
2023-01-08T00:51:10.482Z,3.15
2023-01-08T00:53:58.037Z,3.20
2023-01-08T00:56:45.573Z,3.05
2023-01-08T00:59:33.149Z,3.24
2023-01-08T01:02:20.785Z,3.08
2023-01-08T01:05:08.374Z,3.12
2023-01-08T01:07:55.918Z,2.99
2023-01-08T01:10:43.475Z,3.01
2023-01-08T01:13:31.041Z,2.86
2023-01-08T01:16:18.645Z,2.94
2023-01-08T01:19:06.252Z,3.09
2023-01-08T01:21:53.825Z,3.00
2023-01-08T01:24:41.405Z,3.14
2023-01-08T01:27:28.979Z,3.02
2023-01-08T01:30:16.540Z,2.63
2023-01-08T01:33:04.090Z,2.66
2023-01-08T01:35:51.782Z,2.72
2023-01-08T01:38:39.348Z,2.85
2023-01-08T01:41:26.912Z,2.61
2023-01-08T01:44:14.476Z,2.87
2023-01-08T01:47:02.063Z,2.55
2023-01-08T01:49:49.667Z,2.65
2023-01-08T01:52:37.235Z,2.66
2023-01-08T01:55:24.808Z,2.77
2023-01-08T01:58:12.365Z,2.73
2023-01-08T02:00:59.996Z,2.79
2023-01-08T02:03:47.638Z,2.80
2023-01-08T02:06:35.226Z,2.41
2023-01-08T02:09:22.790Z,2.39
2023-01-08T02:12:10.364Z,2.68
2023-01-08T02:14:57.945Z,2.67
2023-01-08T02:17:45.532Z,2.51
2023-01-08T02:20:33.091Z,2.42
2023-01-08T02:23:20.666Z,2.52
2023-01-08T02:26:08.285Z,2.33
2023-01-08T02:28:55.843Z,2.19
2023-01-08T02:31:43.413Z,2.27
2023-01-08T02:34:31.004Z,2.21
2023-01-08T02:37:18.562Z,2.28
2023-01-08T02:40:06.136Z,2.16
2023-01-08T02:42:53.692Z,2.25
2023-01-08T02:45:41.292Z,2.18
2023-01-08T02:48:28.841Z,2.35
2023-01-08T02:51:16.426Z,2.42
2023-01-08T02:54:03.989Z,2.41
2023-01-08T02:56:51.549Z,2.55
2023-01-08T02:59:39.108Z,2.46
2023-01-08T03:02:26.779Z,2.58
2023-01-08T03:05:14.503Z,2.76
2023-01-08T03:08:02.085Z,2.88
2023-01-08T03:10:49.645Z,2.86
2023-01-08T03:13:37.328Z,3.07
2023-01-08T03:16:24.922Z,3.17
2023-01-08T03:19:12.540Z,3.33
2023-01-08T03:22:00.121Z,3.31
2023-01-08T03:24:47.701Z,3.53
2023-01-08T03:27:35.277Z,3.65
2023-01-08T03:30:22.847Z,3.59
2023-01-08T03:33:10.418Z,3.73
2023-01-08T03:35:57.975Z,3.51
2023-01-08T03:38:45.555Z,3.48
2023-01-08T03:41:33.104Z,3.11
2023-01-08T03:44:20.657Z,3.24
2023-01-08T03:47:08.215Z,2.71
2023-01-08T03:49:55.784Z,2.73
2023-01-08T03:52:43.313Z,2.34
2023-01-08T03:55:30.880Z,2.44
2023-01-08T03:58:18.449Z,2.67
2023-01-08T04:01:06.220Z,2.45
2023-01-08T04:03:53.780Z,2.35
2023-01-08T04:06:41.442Z,2.53
2023-01-08T04:09:29.008Z,2.39
2023-01-08T04:12:16.573Z,2.51
2023-01-08T04:15:04.133Z,2.40
2023-01-08T04:17:51.721Z,2.34
2023-01-08T04:20:39.279Z,2.29
2023-01-08T04:23:26.848Z,2.38
2023-01-08T04:26:14.459Z,2.28
2023-01-08T04:29:02.031Z,2.43
2023-01-08T04:31:49.598Z,2.44
2023-01-08T04:34:37.168Z,2.55
2023-01-08T04:37:24.748Z,2.77
2023-01-08T04:40:12.311Z,2.45
2023-01-08T04:42:59.852Z,2.62
2023-01-08T04:45:47.430Z,2.70
2023-01-08T04:48:34.987Z,2.57
2023-01-08T04:51:22.579Z,2.77
2023-01-08T04:54:10.126Z,2.62
2023-01-08T04:56:57.716Z,2.41
2023-01-08T04:59:45.309Z,2.67
2023-01-08T05:02:33.036Z,2.27
2023-01-08T05:05:20.700Z,2.33
2023-01-08T05:08:08.275Z,2.24
2023-01-08T05:10:55.842Z,2.10
2023-01-08T05:13:43.403Z,1.92
2023-01-08T05:16:30.959Z,1.93
2023-01-08T05:19:18.533Z,1.85
2023-01-08T05:22:06.101Z,1.77
2023-01-08T05:24:53.665Z,1.65
2023-01-08T05:27:41.216Z,1.78
2023-01-08T05:30:28.788Z,1.59
2023-01-08T05:33:16.413Z,1.53
2023-01-08T05:36:05.991Z,1.62
2023-01-08T05:38:53.594Z,1.75
2023-01-08T05:41:41.147Z,1.81
2023-01-08T05:44:28.739Z,1.64
2023-01-08T05:47:16.328Z,1.64
2023-01-08T05:50:03.908Z,2.08
2023-01-08T05:52:51.479Z,1.84
2023-01-08T05:55:39.046Z,2.09
2023-01-08T05:58:26.625Z,2.00
2023-01-08T06:01:14.206Z,1.89
2023-01-08T06:04:01.812Z,2.04
2023-01-08T06:06:49.410Z,2.03
2023-01-08T06:09:36.993Z,1.98
2023-01-08T06:12:24.597Z,2.05
2023-01-08T06:15:12.165Z,2.00
2023-01-08T06:17:59.740Z,2.10
2023-01-08T06:20:47.281Z,1.93
2023-01-08T06:23:34.865Z,2.17
2023-01-08T06:26:22.425Z,1.86
2023-01-08T06:29:09.981Z,2.29
2023-01-08T06:31:57.537Z,2.35
2023-01-08T06:34:45.116Z,2.36
2023-01-08T06:37:32.717Z,2.07
2023-01-08T06:40:20.316Z,2.19
2023-01-08T06:43:07.880Z,2.20
2023-01-08T06:45:55.455Z,2.39
2023-01-08T06:48:43.017Z,2.39
2023-01-08T06:51:30.591Z,2.38
2023-01-08T06:54:18.146Z,2.39
2023-01-08T06:57:05.704Z,2.77
2023-01-08T06:59:51.866Z,2.72
2023-01-08T07:02:37.990Z,2.54
2023-01-08T07:05:24.282Z,2.54
2023-01-08T07:08:10.089Z,2.54
2023-01-08T07:10:55.821Z,2.51
2023-01-08T07:13:41.792Z,2.31
2023-01-08T07:16:27.654Z,2.61
2023-01-08T07:19:13.912Z,2.30
2023-01-08T07:21:59.661Z,2.31
2023-01-08T07:24:45.605Z,2.35
2023-01-08T07:27:31.593Z,2.37
2023-01-08T07:30:28.913Z,2.42
2023-01-08T07:33:15.927Z,2.29
2023-01-08T07:36:01.833Z,2.38
2023-01-08T07:38:47.650Z,2.52
2023-01-08T07:41:33.572Z,2.60
2023-01-08T07:44:19.375Z,2.63
2023-01-08T07:47:05.305Z,2.57
2023-01-08T07:49:51.121Z,2.78
2023-01-08T07:52:37.025Z,2.60
2023-01-08T07:55:22.856Z,2.80
2023-01-08T07:58:08.562Z,2.51
2023-01-08T08:00:54.544Z,2.65
2023-01-08T08:03:40.392Z,2.48
2023-01-08T08:06:26.138Z,2.41
2023-01-08T08:09:11.974Z,2.10
2023-01-08T08:11:57.678Z,2.19
2023-01-08T08:14:43.584Z,2.00
2023-01-08T08:17:29.410Z,2.00
2023-01-08T08:20:15.245Z,1.93
2023-01-08T08:23:01.102Z,2.00
2023-01-08T08:25:46.886Z,1.94
2023-01-08T08:28:32.772Z,1.82
2023-01-08T08:31:18.699Z,1.79
2023-01-08T08:34:04.504Z,1.88
2023-01-08T08:36:50.571Z,1.63
2023-01-08T08:39:36.414Z,1.62
2023-01-08T08:42:22.300Z,1.89
2023-01-08T08:45:08.189Z,1.72
2023-01-08T08:47:54.039Z,1.58
2023-01-08T08:50:40.060Z,1.55
2023-01-08T08:53:27.619Z,1.41
2023-01-08T08:56:13.609Z,1.48
2023-01-08T08:58:59.494Z,1.57
2023-01-08T09:01:45.557Z,1.41
2023-01-08T09:04:31.759Z,1.35
2023-01-08T09:07:19.561Z,1.32
2023-01-08T09:10:05.491Z,1.58
2023-01-08T09:12:51.283Z,1.29
2023-01-08T09:15:37.222Z,1.21
2023-01-08T09:18:23.125Z,1.34
2023-01-08T09:21:08.997Z,1.48
2023-01-08T09:23:54.830Z,1.46
2023-01-08T09:26:40.549Z,1.26
2023-01-08T09:29:26.544Z,1.19
2023-01-08T09:32:12.356Z,1.38
2023-01-08T09:34:58.153Z,1.37
2023-01-08T09:37:44.046Z,1.19
2023-01-08T09:40:30.067Z,1.20
2023-01-08T09:43:16.033Z,1.18
2023-01-08T09:46:01.983Z,1.29
2023-01-08T09:48:47.897Z,1.30
2023-01-08T09:51:33.883Z,1.18
2023-01-08T09:54:19.622Z,1.14
2023-01-08T09:57:05.550Z,1.26
2023-01-08T09:59:51.582Z,1.27
2023-01-08T10:02:37.463Z,1.17
2023-01-08T10:05:23.844Z,1.22
2023-01-08T10:08:09.771Z,1.31
2023-01-08T10:10:55.564Z,1.26
2023-01-08T10:13:41.513Z,1.18
2023-01-08T10:16:27.370Z,1.34
2023-01-08T10:19:13.357Z,1.37
2023-01-08T10:21:59.292Z,1.31
2023-01-08T10:24:45.201Z,1.20
2023-01-08T10:27:31.025Z,1.31
2023-01-08T10:30:16.905Z,1.30
2023-01-08T10:33:02.858Z,1.25
2023-01-08T10:35:48.810Z,1.29
2023-01-08T10:38:34.604Z,1.30
2023-01-08T10:41:20.623Z,1.28
2023-01-08T10:44:08.512Z,1.23
2023-01-08T10:46:54.422Z,1.20
2023-01-08T10:49:42.254Z,1.04
2023-01-08T10:52:28.149Z,0.96
2023-01-08T10:55:13.935Z,0.95
2023-01-08T10:57:59.879Z,1.10
2023-01-08T11:00:45.739Z,1.08
2023-01-08T11:03:33.228Z,1.02
2023-01-08T11:06:19.090Z,1.01
2023-01-08T11:09:05.019Z,1.03
2023-01-08T11:11:50.929Z,0.84
2023-01-08T11:14:36.857Z,1.12
2023-01-08T11:17:22.675Z,0.92
2023-01-08T11:20:08.588Z,0.93
2023-01-08T11:22:54.547Z,0.85
2023-01-08T11:25:40.331Z,0.93
2023-01-08T11:28:26.274Z,0.95
2023-01-08T11:31:12.238Z,0.91
2023-01-08T11:33:58.248Z,0.95
2023-01-08T11:36:44.125Z,1.13
2023-01-08T11:39:29.993Z,1.06
2023-01-08T11:42:15.826Z,0.99
2023-01-08T11:45:01.662Z,1.12
2023-01-08T11:47:47.437Z,0.98
2023-01-08T11:50:33.144Z,1.00
2023-01-08T11:53:18.900Z,1.07
2023-01-08T11:56:04.859Z,0.90
2023-01-08T11:58:50.765Z,0.96
2023-01-08T12:01:36.792Z,0.95
2023-01-08T12:04:22.918Z,0.98
2023-01-08T12:07:08.652Z,1.04
2023-01-08T12:09:54.500Z,1.12
2023-01-08T12:12:40.373Z,0.84
2023-01-08T12:15:26.265Z,0.96
2023-01-08T12:18:12.065Z,1.00
2023-01-08T12:20:57.975Z,0.89
2023-01-08T12:23:43.807Z,0.94
2023-01-08T12:26:29.685Z,0.80
2023-01-08T12:29:15.411Z,0.95
2023-01-08T12:32:03.637Z,0.94
2023-01-08T12:34:51.102Z,1.07
2023-01-08T12:37:36.960Z,1.03
2023-01-08T12:40:24.769Z,1.09
2023-01-08T12:43:10.634Z,1.05
2023-01-08T12:45:56.429Z,0.95
2023-01-08T12:48:42.248Z,0.97
2023-01-08T12:51:28.121Z,1.03
2023-01-08T12:54:13.902Z,1.12
2023-01-08T12:56:59.809Z,1.32
2023-01-08T12:59:45.708Z,1.34
2023-01-08T13:02:31.746Z,1.18
2023-01-08T13:05:18.001Z,1.19
2023-01-08T13:08:03.708Z,1.32
2023-01-08T13:10:49.644Z,1.40
2023-01-08T13:13:35.452Z,1.68
2023-01-08T13:16:21.464Z,1.52
2023-01-08T13:19:07.341Z,1.51
2023-01-08T13:21:53.115Z,1.68
2023-01-08T13:24:38.907Z,1.70
2023-01-08T13:27:24.780Z,1.68
2023-01-08T13:30:10.571Z,1.41
2023-01-08T13:32:56.645Z,1.40
2023-01-08T13:35:42.642Z,1.39
2023-01-08T13:38:28.453Z,1.33
2023-01-08T13:41:14.280Z,1.19
2023-01-08T13:43:59.926Z,1.40
2023-01-08T13:46:47.685Z,1.36
2023-01-08T13:49:33.629Z,1.19
2023-01-08T13:52:19.571Z,1.21
2023-01-08T13:55:05.483Z,1.11
2023-01-08T13:57:51.565Z,0.96
2023-01-08T14:00:37.377Z,0.94
2023-01-08T14:03:23.117Z,1.08
2023-01-08T14:06:08.884Z,1.00
2023-01-08T14:08:54.721Z,1.11
2023-01-08T14:11:40.433Z,0.99
2023-01-08T14:14:28.197Z,0.85
2023-01-08T14:17:14.106Z,0.94
2023-01-08T14:19:59.947Z,0.92
2023-01-08T14:22:45.736Z,0.92
2023-01-08T14:25:31.567Z,0.70
2023-01-08T14:28:17.392Z,0.79
2023-01-08T14:31:03.172Z,0.73
2023-01-08T14:33:49.017Z,0.72
2023-01-08T14:36:34.781Z,0.79
2023-01-08T14:39:20.625Z,0.82
2023-01-08T14:42:06.613Z,0.92
2023-01-08T14:44:52.505Z,0.82
2023-01-08T14:47:38.417Z,0.85
2023-01-08T14:50:24.430Z,0.99
2023-01-08T14:53:10.304Z,0.79
2023-01-08T14:55:56.162Z,0.97
2023-01-08T14:58:42.067Z,0.99
2023-01-08T15:01:29.960Z,0.95
2023-01-08T15:04:15.962Z,0.91
2023-01-08T15:07:01.698Z,0.93
2023-01-08T15:09:47.706Z,0.87
2023-01-08T15:12:33.510Z,0.81
2023-01-08T15:15:19.306Z,0.87
2023-01-08T15:18:05.208Z,0.82
2023-01-08T15:20:50.926Z,0.94
2023-01-08T15:23:37.000Z,0.79
2023-01-08T15:26:22.877Z,0.87
2023-01-08T15:29:08.724Z,0.87
2023-01-08T15:31:54.542Z,0.85
2023-01-08T15:34:40.428Z,0.71
2023-01-08T15:37:26.331Z,0.73
2023-01-08T15:40:12.358Z,0.83
2023-01-08T15:42:58.097Z,0.78
2023-01-08T15:45:43.951Z,0.83
2023-01-08T15:48:29.838Z,0.73
2023-01-08T15:51:15.686Z,0.81
2023-01-08T15:54:01.621Z,0.78
2023-01-08T15:56:47.451Z,0.85
2023-01-08T15:59:33.240Z,0.79
2023-01-08T16:02:19.214Z,0.84
2023-01-08T16:05:05.318Z,0.90
2023-01-08T16:07:51.259Z,0.94
2023-01-08T16:10:37.155Z,0.96
2023-01-08T16:13:23.028Z,1.06
2023-01-08T16:16:08.908Z,1.16
2023-01-08T16:18:54.803Z,1.23
2023-01-08T16:21:40.716Z,1.06
2023-01-08T16:24:26.565Z,1.02
2023-01-08T16:27:12.319Z,1.52
2023-01-08T16:29:58.256Z,1.01
2023-01-08T16:32:44.196Z,0.89
2023-01-08T16:35:30.207Z,1.02
2023-01-08T16:38:16.193Z,1.03
2023-01-08T16:41:01.980Z,0.87
2023-01-08T16:43:47.970Z,0.91
2023-01-08T16:46:33.816Z,0.88
2023-01-08T16:49:19.659Z,1.01
2023-01-08T16:52:05.605Z,0.90
2023-01-08T16:54:51.501Z,0.84
2023-01-08T16:57:37.300Z,0.99
2023-01-08T17:00:23.269Z,0.92
2023-01-08T17:03:09.087Z,0.96
2023-01-08T17:05:54.904Z,1.12
2023-01-08T17:08:40.824Z,1.17
2023-01-08T17:11:26.779Z,1.03
2023-01-08T17:14:12.629Z,1.18
2023-01-08T17:16:58.326Z,1.17
2023-01-08T17:19:44.230Z,1.13
2023-01-08T17:22:32.144Z,1.31
2023-01-08T17:25:17.905Z,1.25
2023-01-08T17:28:03.822Z,1.25
2023-01-08T17:30:49.578Z,1.50
2023-01-08T17:33:35.522Z,1.36
2023-01-08T17:36:21.440Z,1.45
2023-01-08T17:39:07.113Z,1.50
2023-01-08T17:41:52.993Z,1.71
2023-01-08T17:44:38.986Z,1.58
2023-01-08T17:47:26.821Z,2.00
2023-01-08T17:50:12.871Z,1.80
2023-01-08T17:52:58.699Z,2.07
2023-01-08T17:55:44.532Z,1.61
2023-01-08T17:58:30.431Z,1.78
2023-01-08T18:01:16.275Z,1.54
2023-01-08T18:04:02.137Z,1.73
2023-01-08T18:06:47.881Z,1.49
2023-01-08T18:09:36.504Z,1.62
2023-01-08T18:12:22.539Z,1.40
2023-01-08T18:15:08.361Z,1.36
2023-01-08T18:17:54.284Z,1.66
2023-01-08T18:20:40.216Z,1.68
2023-01-08T18:23:26.039Z,1.76
2023-01-08T18:26:12.603Z,1.85
2023-01-08T18:28:58.822Z,1.70
2023-01-08T18:31:46.300Z,1.56
2023-01-08T18:34:32.696Z,1.39
2023-01-08T18:37:18.628Z,1.40
2023-01-08T18:40:04.415Z,1.25
2023-01-08T18:42:50.301Z,1.09
2023-01-08T18:45:36.387Z,0.88
2023-01-08T18:48:22.142Z,0.85
2023-01-08T18:51:07.953Z,0.89
2023-01-08T18:53:53.818Z,0.70
2023-01-08T18:56:39.632Z,0.60
2023-01-08T18:59:25.543Z,0.71
2023-01-08T19:02:11.442Z,0.65
2023-01-08T19:04:57.706Z,0.67
2023-01-08T19:07:43.520Z,0.69
2023-01-08T19:10:29.296Z,0.56
2023-01-08T19:13:15.140Z,0.49
2023-01-08T19:16:00.959Z,0.52
2023-01-08T19:18:46.970Z,0.56
2023-01-08T19:21:32.879Z,0.51
2023-01-08T19:24:18.667Z,0.53
2023-01-08T19:27:04.602Z,0.54
2023-01-08T19:29:50.512Z,0.62
2023-01-08T19:32:36.315Z,0.61
2023-01-08T19:35:22.124Z,0.58
2023-01-08T19:38:08.059Z,0.67
2023-01-08T19:40:53.818Z,0.74
2023-01-08T19:43:39.829Z,0.67
2023-01-08T19:46:25.768Z,0.76
2023-01-08T19:49:11.779Z,0.66
2023-01-08T19:51:57.870Z,0.70
2023-01-08T19:54:43.760Z,0.76
2023-01-08T19:57:29.559Z,0.82
2023-01-08T20:00:15.317Z,0.78
2023-01-08T20:03:01.144Z,0.78
2023-01-08T20:05:46.964Z,0.77
2023-01-08T20:08:32.787Z,0.89
2023-01-08T20:11:18.594Z,0.78
2023-01-08T20:14:04.413Z,0.89
2023-01-08T20:16:50.394Z,0.87
2023-01-08T20:19:36.340Z,0.94
2023-01-08T20:22:22.249Z,0.99
2023-01-08T20:25:08.099Z,0.88
2023-01-08T20:27:53.905Z,0.73
2023-01-08T20:30:39.834Z,0.58
2023-01-08T20:33:25.821Z,0.68
2023-01-08T20:36:11.632Z,0.61
2023-01-08T20:38:58.475Z,0.83
2023-01-08T20:41:50.309Z,1.00
2023-01-08T20:44:47.072Z,1.42
2023-01-08T20:47:32.913Z,1.78
2023-01-08T20:50:20.380Z,1.74
2023-01-08T20:53:06.447Z,1.95
2023-01-08T20:55:52.456Z,1.99
2023-01-08T20:58:38.327Z,1.97
2023-01-08T21:01:24.183Z,2.01
2023-01-08T21:04:10.167Z,1.98
2023-01-08T21:06:55.930Z,2.07
2023-01-08T21:09:41.935Z,2.12
2023-01-08T21:12:27.813Z,1.72
2023-01-08T21:15:13.641Z,1.29
2023-01-08T21:17:59.459Z,1.37
2023-01-08T21:20:45.280Z,1.49
2023-01-08T21:23:31.085Z,1.58
2023-01-08T21:26:17.019Z,1.69
2023-01-08T21:29:02.775Z,1.58
2023-01-08T21:34:35.058Z,1.66
2023-01-08T21:37:21.121Z,1.84
2023-01-08T21:40:07.122Z,1.80
2023-01-08T21:42:52.956Z,2.06
2023-01-08T21:45:38.876Z,2.27
2023-01-08T21:48:24.880Z,2.30
2023-01-08T21:51:10.644Z,2.44
2023-01-08T21:53:56.612Z,2.48
2023-01-08T21:56:42.457Z,2.51
2023-01-08T21:59:28.280Z,2.78
2023-01-08T22:02:14.089Z,2.53
2023-01-08T22:04:59.908Z,2.57
2023-01-08T22:07:45.901Z,2.49
2023-01-08T22:10:31.815Z,2.73
2023-01-08T22:13:17.567Z,2.66
2023-01-08T22:16:03.355Z,2.40
2023-01-08T22:18:49.167Z,2.52
2023-01-08T22:21:35.017Z,2.61
2023-01-08T22:24:21.301Z,2.69
2023-01-08T22:27:07.079Z,2.43
2023-01-08T22:29:52.936Z,2.57
2023-01-08T22:32:38.834Z,2.46
2023-01-08T22:35:24.648Z,2.87
2023-01-08T22:38:10.502Z,2.98
2023-01-08T22:40:56.297Z,3.14
2023-01-08T22:43:42.033Z,4.13
2023-01-08T22:46:27.909Z,3.37
2023-01-08T22:49:13.756Z,3.48
2023-01-08T22:51:59.783Z,3.17
2023-01-08T22:54:45.627Z,3.44
2023-01-08T22:57:31.466Z,3.30
2023-01-08T23:00:17.388Z,3.28
2023-01-08T23:03:03.164Z,3.59
2023-01-08T23:05:49.077Z,3.67
2023-01-08T23:08:35.100Z,3.61
2023-01-08T23:11:21.038Z,3.63
2023-01-08T23:14:06.944Z,3.65
2023-01-08T23:16:52.664Z,3.88
2023-01-08T23:19:38.676Z,3.78
2023-01-08T23:22:24.568Z,3.80
2023-01-08T23:25:10.420Z,3.94
2023-01-08T23:27:56.452Z,4.14
2023-01-08T23:30:42.337Z,3.98
2023-01-08T23:33:28.173Z,4.20
2023-01-08T23:36:14.010Z,3.58
2023-01-08T23:38:59.777Z,3.74
2023-01-08T23:41:45.643Z,3.70
2023-01-08T23:44:31.504Z,3.77
2023-01-08T23:47:17.368Z,3.55
2023-01-08T23:50:03.108Z,3.21
2023-01-08T23:52:48.943Z,3.18
2023-01-08T23:55:34.823Z,3.28
2023-01-08T23:58:20.809Z,2.96
